Time;durP1;ratioP1;P1;durP2;ratioP2;P2;SDS_P1;SDS_P2;PMS_P1;PMS_P2;Temp;Humidity;BMP_temperature;BMP_pressure;BME280_temperature;BME280_humidity;BME280_pressure;Samples;Min_cycle;Max_cycle;Signal;HPM_P1;HPM_P2
2021/11/21 04:54:17;;;;;;;;;;;;;;;;;;;;;
2021/11/21 06:07:11;;;;;;;;;;;;;;;;;;;;;
2021/11/21 07:12:58;;;;;;;;;209.00;207.17;;;;;;;;5963520;24;8748;-82
2021/11/21 08:02:42;;;;;;;;;177.40;177.40;;;;;;;;6244707;22;8730;-80
2021/11/21 08:05:24;;;;;;;;;179.83;179.83;;;;;;;;6224289;23;8784;-80
2021/11/21 08:07:52;;;;;;;;;180.83;179.67;;;;;;;;6288071;22;8796;-80
2021/11/21 08:10:36;;;;;;;;;188.50;187.75;;;;;;;;6384504;22;8794;-80
2021/11/21 08:13:23;;;;;;;;;199.20;198.60;;;;;;;;6355369;22;8724;-80
2021/11/21 08:16:07;;;;;;;;;211.67;211.67;;;;;;;;6414313;22;11479;-80
2021/11/21 08:18:35;;;;;;;;;153.00;152.33;;;;;;;;6386490;22;8753;-79
2021/11/21 08:21:00;;;;;;;;;175.20;173.60;;;;;;;;6415674;22;8753;-79
2021/11/21 08:23:26;;;;;;;;;165.67;165.67;;;;;;;;6416054;22;9496;-79
2021/11/21 08:25:54;;;;;;;;;193.00;193.00;;;;;;;;6387188;22;10867;-80
2021/11/21 08:28:20;;;;;;;;;162.20;162.20;;;;;;;;6387342;22;8989;-79
2021/11/21 08:30:45;;;;;;;;;192.00;192.00;;;;;;;;6416580;22;8803;-79
2021/11/21 08:33:10;;;;;;;;;86.25;78.25;;;;;;;;6416193;22;8761;-79
2021/11/21 08:35:37;;;;;;;;;93.80;88.00;;;;;;;;6416333;22;8764;-79
2021/11/21 08:38:02;;;;;;;;;52.80;45.80;;;;;;;;6416268;22;8765;-79
2021/11/21 08:40:29;;;;;;;;;154.40;154.40;;;;;;;;6416738;22;8922;-79
2021/11/21 08:42:55;;;;;;;;;105.60;101.80;;;;;;;;6416528;22;8733;-79
2021/11/21 08:45:21;;;;;;;;;206.17;206.17;;;;;;;;6416238;22;8756;-80
2021/11/21 08:50:36;;;;;;;;;165.20;165.00;;;;;;;;6416550;22;8761;-81
2021/11/21 08:53:02;;;;;;;;;162.20;162.20;;;;;;;;6387050;22;9651;-78
2021/11/21 08:55:27;;;;;;;;;190.83;190.83;;;;;;;;6416372;22;8816;-79
2021/11/21 08:57:55;;;;;;;;;211.67;211.67;;;;;;;;6415817;22;8816;-81
2021/11/21 09:00:24;;;;;;;;;0.00;0.00;;;;;;;;6387720;22;8925;-80
2021/11/21 09:02:54;;;;;;;;;111.50;108.00;;;;;;;;6417541;22;8748;-80
2021/11/21 09:05:20;;;;;;;;;174.40;174.40;;;;;;;;6448344;22;8741;-79
2021/11/21 09:07:45;;;;;;;;;174.00;174.00;;;;;;;;6448331;22;8738;-80
2021/11/21 09:10:20;;;;;;;;;70.75;60.25;;;;;;;;6448593;22;8735;-80
2021/11/21 09:12:48;;;;;;;;;19.33;19.33;;;;;;;;6448510;22;8727;-81
2021/11/21 09:15:17;;;;;;;;;212.17;212.17;;;;;;;;6418440;22;8765;-81
2021/11/21 09:21:42;;;;;;;;;;;;;;;;;;;;;
2021/11/21 09:27:45;;;;;;;;;;;;;;;;;;;;;
2021/11/21 09:35:01;;;;;;;;;80.20;74.80;;;;;;;;6159426;23;8696;-82
2021/11/21 09:43:04;;;;;;;;;21.00;19.60;;;;;;;;6033336;23;8746;-81
2021/11/21 09:45:44;;;;;;;;;28.25;27.00;;;;;;;;6076529;23;8733;-81
2021/11/21 09:48:09;;;;;;;;;38.25;34.75;;;;;;;;6189680;23;9689;-81
2021/11/21 09:50:38;;;;;;;;;42.33;38.33;;;;;;;;6212832;22;10936;-80
2021/11/21 09:53:07;;;;;;;;;9.50;9.50;;;;;;;;6229135;22;8753;-81
2021/11/21 09:59:03;;;;;;;;;55.20;48.00;;;;;;;;6426060;22;8877;-80
2021/11/21 10:01:37;;;;;;;;;5.00;5.00;;;;;;;;6448464;22;8698;-81
2021/11/21 10:13:45;;;;;;;;;4.00;4.00;;;;;;;;6312897;22;8697;-80
2021/11/21 10:16:19;;;;;;;;;0.00;0.00;;;;;;;;6316861;22;8745;-80
2021/11/21 10:18:49;;;;;;;;;0.00;0.00;;;;;;;;6361812;22;9165;-81
2021/11/21 10:24:24;;;;;;;;;;;;;;;;;;;;;
2021/11/21 10:27:11;;;;;;;;;43.25;39.00;;;;;;;;6414711;22;36814;-81
2021/11/21 10:29:53;;;;;;;;;;;;;;;;;;;;;
2021/11/21 10:32:23;;;;;;;;;19.80;18.40;;;;;;;;6416031;22;36771;-81
2021/11/21 10:35:08;;;;;;;;;3.75;3.75;;;;;;;;6417334;22;8816;-81
2021/11/21 10:40:46;;;;;;;;;0.00;0.00;;;;;;;;6351752;22;9626;-81
2021/11/21 10:43:20;;;;;;;;;3.25;3.25;;;;;;;;6415992;22;8744;-81
2021/11/21 10:45:49;;;;;;;;;0.25;0.25;;;;;;;;6417351;22;8924;-81
2021/11/21 10:54:40;;;;;;;;;0.00;0.00;;;;;;;;6252744;22;8744;-81
2021/11/21 10:57:13;;;;;;;;;1.25;1.25;;;;;;;;6230645;22;8741;-80
2021/11/21 11:00:04;;;;;;;;;0.00;0.00;;;;;;;;6383580;22;8740;-80
2021/11/21 11:02:30;;;;;;;;;8.25;8.25;;;;;;;;6416313;22;8751;-79
2021/11/21 11:04:58;;;;;;;;;2.00;2.00;;;;;;;;6445123;22;8773;-79
2021/11/21 11:07:24;;;;;;;;;17.00;16.75;;;;;;;;6449158;22;8723;-79
2021/11/21 11:09:51;;;;;;;;;0.25;0.25;;;;;;;;6449942;22;8747;-79
2021/11/21 11:12:16;;;;;;;;;0.00;0.00;;;;;;;;6448972;22;8723;-80
2021/11/21 11:14:44;;;;;;;;;0.00;0.00;;;;;;;;6449191;22;8812;-80
2021/11/21 11:17:09;;;;;;;;;0.00;0.00;;;;;;;;6420096;22;8936;-80
2021/11/21 11:19:37;;;;;;;;;0.00;0.00;;;;;;;;6449555;22;9473;-80
2021/11/21 11:22:03;;;;;;;;;0.00;0.00;;;;;;;;6448944;22;8745;-80
2021/11/21 11:24:29;;;;;;;;;0.00;0.00;;;;;;;;6420324;22;9604;-79
2021/11/21 11:27:01;;;;;;;;;0.50;0.50;;;;;;;;6449322;22;8730;-79
2021/11/21 11:29:28;;;;;;;;;0.00;0.00;;;;;;;;6449649;22;8738;-79
2021/11/21 11:32:14;;;;;;;;;0.00;0.00;;;;;;;;6449225;22;8718;-79
2021/11/21 11:34:39;;;;;;;;;0.00;0.00;;;;;;;;6449297;22;8797;-79
2021/11/21 11:37:10;;;;;;;;;0.00;0.00;;;;;;;;6448880;22;8738;-79
2021/11/21 11:39:40;;;;;;;;;11.75;11.75;;;;;;;;6449276;22;8734;-79
2021/11/21 11:42:24;;;;;;;;;0.00;0.00;;;;;;;;6449137;22;8761;-80
2021/11/21 11:44:53;;;;;;;;;1.50;1.50;;;;;;;;6449477;22;8734;-78
2021/11/21 11:47:25;;;;;;;;;0.00;0.00;;;;;;;;6449330;22;9665;-78
2021/11/21 11:49:50;;;;;;;;;0.00;0.00;;;;;;;;6449819;22;8726;-78
2021/11/21 11:52:16;;;;;;;;;9.50;9.50;;;;;;;;6448837;22;8877;-78
2021/11/21 11:54:43;;;;;;;;;16.25;16.25;;;;;;;;6449296;22;8739;-78
2021/11/21 11:57:09;;;;;;;;;0.00;0.00;;;;;;;;6449000;22;8784;-78
2021/11/21 11:59:36;;;;;;;;;4.25;4.25;;;;;;;;6449452;22;8773;-78
2021/11/21 12:02:04;;;;;;;;;0.00;0.00;;;;;;;;6449087;22;8749;-78
2021/11/21 12:04:30;;;;;;;;;52.00;45.25;;;;;;;;6448537;22;8762;-79
2021/11/21 12:06:56;;;;;;;;;6.33;6.33;;;;;;;;6448814;22;8796;-78
2021/11/21 12:09:24;;;;;;;;;0.00;0.00;;;;;;;;6449608;22;8726;-78
2021/11/21 12:11:58;;;;;;;;;0.00;0.00;;;;;;;;6420601;22;8741;-78
2021/11/21 12:14:26;;;;;;;;;0.00;0.00;;;;;;;;6449556;22;8694;-78
2021/11/21 12:16:56;;;;;;;;;0.00;0.00;;;;;;;;6420084;22;9650;-78
2021/11/21 12:19:40;;;;;;;;;0.00;0.00;;;;;;;;6449498;22;8734;-78
2021/11/21 12:24:54;;;;;;;;;0.00;0.00;;;;;;;;6449413;22;8859;-78
2021/11/21 12:27:22;;;;;;;;;0.00;0.00;;;;;;;;6420243;22;8734;-78
2021/11/21 12:30:08;;;;;;;;;0.00;0.00;;;;;;;;6420288;22;8746;-78
2021/11/21 12:32:43;;;;;;;;;0.00;0.00;;;;;;;;6449132;22;8723;-79
2021/11/21 12:35:35;;;;;;;;;0.00;0.00;;;;;;;;6449085;22;8718;-78
2021/11/21 12:38:02;;;;;;;;;0.00;0.00;;;;;;;;6414042;22;8801;-80
2021/11/21 12:40:45;;;;;;;;;102.17;98.50;;;;;;;;6448481;22;8759;-78
2021/11/21 12:43:14;;;;;;;;;128.40;126.60;;;;;;;;6447950;22;8919;-78
2021/11/21 12:45:44;;;;;;;;;124.83;122.67;;;;;;;;6448624;22;8719;-78
2021/11/21 12:48:10;;;;;;;;;0.00;0.00;;;;;;;;6419451;22;8748;-79
2021/11/21 12:50:38;;;;;;;;;107.20;103.40;;;;;;;;6447667;22;8730;-79
2021/11/21 12:53:33;;;;;;;;;41.80;36.80;;;;;;;;6447534;22;8810;-78
2021/11/21 12:56:11;;;;;;;;;24.50;23.25;;;;;;;;6426073;22;8734;-78
2021/11/21 12:58:56;;;;;;;;;0.00;0.00;;;;;;;;6448721;22;8750;-79
2021/11/21 13:01:39;;;;;;;;;0.00;0.00;;;;;;;;6449197;22;8663;-79
2021/11/21 13:04:04;;;;;;;;;4.00;4.00;;;;;;;;6447510;22;8831;-79
2021/11/21 13:06:33;;;;;;;;;173.00;173.00;;;;;;;;6448104;22;8754;-79
2021/11/21 13:09:02;;;;;;;;;6.25;6.25;;;;;;;;6418931;22;8754;-79
2021/11/21 13:11:27;;;;;;;;;0.00;0.00;;;;;;;;6420057;22;8750;-79
2021/11/21 13:13:58;;;;;;;;;5.00;5.00;;;;;;;;6419229;22;8765;-79
2021/11/21 13:16:24;;;;;;;;;32.20;28.40;;;;;;;;6419516;22;8734;-79
2021/11/21 13:19:02;;;;;;;;;113.50;110.17;;;;;;;;6448382;22;8746;-79
2021/11/21 13:21:31;;;;;;;;;2.00;2.00;;;;;;;;6448443;22;8735;-79
2021/11/21 13:24:09;;;;;;;;;31.00;27.40;;;;;;;;6418606;22;8757;-78
2021/11/21 13:26:35;;;;;;;;;0.00;0.00;;;;;;;;6448570;22;8731;-79
2021/11/21 13:29:01;;;;;;;;;9.25;9.25;;;;;;;;6448028;22;8746;-81
2021/11/21 13:31:28;;;;;;;;;0.25;0.25;;;;;;;;6448674;22;8675;-78
2021/11/21 13:34:02;;;;;;;;;12.00;12.00;;;;;;;;6447854;22;8753;-81
2021/11/21 13:36:38;;;;;;;;;1.00;1.00;;;;;;;;6448469;22;8741;-78
2021/11/21 13:39:03;;;;;;;;;31.20;27.80;;;;;;;;6418377;22;8772;-79
2021/11/21 13:41:29;;;;;;;;;0.50;0.50;;;;;;;;6448795;22;8758;-78
2021/11/21 13:44:03;;;;;;;;;50.25;45.75;;;;;;;;6447855;22;8788;-80
2021/11/21 13:46:37;;;;;;;;;0.00;0.00;;;;;;;;6419279;22;8811;-79
2021/11/21 13:49:12;;;;;;;;;71.20;64.40;;;;;;;;6447704;22;8730;-79
2021/11/21 13:51:40;;;;;;;;;78.00;71.80;;;;;;;;6418978;22;8911;-79
2021/11/21 13:54:05;;;;;;;;;0.00;0.00;;;;;;;;6447610;22;8682;-79
2021/11/21 13:56:40;;;;;;;;;22.25;20.75;;;;;;;;6448613;22;8824;-79
2021/11/21 13:59:08;;;;;;;;;0.25;0.25;;;;;;;;6447727;22;8925;-79
2021/11/21 14:01:41;;;;;;;;;0.00;0.00;;;;;;;;6419452;22;8880;-79
2021/11/21 14:04:07;;;;;;;;;66.00;59.60;;;;;;;;6448559;22;8739;-79
2021/11/21 14:06:33;;;;;;;;;0.00;0.00;;;;;;;;6420334;22;8785;-80
2021/11/21 14:08:59;;;;;;;;;0.25;0.25;;;;;;;;6419474;22;8726;-79
2021/11/21 14:11:31;;;;;;;;;0.00;0.00;;;;;;;;6420431;22;8764;-79
2021/11/21 14:14:05;;;;;;;;;0.25;0.25;;;;;;;;6419849;22;8710;-79
2021/11/21 14:16:40;;;;;;;;;0.00;0.00;;;;;;;;6449519;22;9510;-79
2021/11/21 14:19:07;;;;;;;;;0.25;0.25;;;;;;;;6448684;22;8725;-79
2021/11/21 14:21:33;;;;;;;;;0.00;0.00;;;;;;;;6449524;22;8667;-79
2021/11/21 14:24:06;;;;;;;;;0.00;0.00;;;;;;;;6449111;22;9489;-79
2021/11/21 14:26:31;;;;;;;;;0.00;0.00;;;;;;;;6420531;22;8727;-80
2021/11/21 14:29:02;;;;;;;;;0.00;0.00;;;;;;;;6449421;22;8812;-79
2021/11/21 14:31:30;;;;;;;;;0.00;0.00;;;;;;;;6420460;22;8738;-79
2021/11/21 14:33:56;;;;;;;;;0.00;0.00;;;;;;;;6449222;22;8731;-80
2021/11/21 14:36:25;;;;;;;;;0.00;0.00;;;;;;;;6448751;22;8757;-80
2021/11/21 14:39:15;;;;;;;;;0.00;0.00;;;;;;;;6448863;22;8760;-79
2021/11/21 14:41:42;;;;;;;;;0.00;0.00;;;;;;;;6404100;22;8742;-80
2021/11/21 14:44:12;;;;;;;;;0.00;0.00;;;;;;;;6448775;22;8779;-79
2021/11/21 14:46:41;;;;;;;;;25.33;25.00;;;;;;;;6449354;22;9635;-79
2021/11/21 14:49:08;;;;;;;;;57.33;48.67;;;;;;;;6448133;22;12499;-78
2021/11/21 14:51:39;;;;;;;;;22.50;21.25;;;;;;;;6419788;22;8870;-79
2021/11/21 14:54:11;;;;;;;;;35.25;32.75;;;;;;;;6449179;22;11429;-78
2021/11/21 14:56:36;;;;;;;;;103.00;97.25;;;;;;;;6449436;22;8743;-78
2021/11/21 14:59:02;;;;;;;;;59.00;50.33;;;;;;;;6448878;22;8761;-79
2021/11/21 15:01:32;;;;;;;;;69.40;63.60;;;;;;;;6449122;22;8730;-79
2021/11/21 15:04:00;;;;;;;;;12.00;12.00;;;;;;;;6448610;22;8765;-79
2021/11/21 15:06:26;;;;;;;;;44.67;40.00;;;;;;;;6419612;22;8742;-79
2021/11/21 15:08:54;;;;;;;;;17.75;17.75;;;;;;;;6449767;22;8857;-79
2021/11/21 15:11:22;;;;;;;;;38.75;36.00;;;;;;;;6449126;22;8802;-79
2021/11/21 15:13:48;;;;;;;;;0.50;0.50;;;;;;;;6419679;22;8723;-79
2021/11/21 15:16:13;;;;;;;;;2.00;2.00;;;;;;;;6419663;22;9522;-79
2021/11/21 15:18:38;;;;;;;;;0.00;0.00;;;;;;;;6420233;22;8868;-79
2021/11/21 15:21:05;;;;;;;;;0.25;0.25;;;;;;;;6448981;22;8771;-79
2021/11/21 15:23:30;;;;;;;;;0.00;0.00;;;;;;;;6449267;22;8803;-79
2021/11/21 15:25:56;;;;;;;;;1.00;1.00;;;;;;;;6449174;22;8730;-79
2021/11/21 15:28:21;;;;;;;;;2.25;2.25;;;;;;;;6449404;22;8762;-79
2021/11/21 15:30:47;;;;;;;;;0.00;0.00;;;;;;;;6420596;22;9478;-79
2021/11/21 15:33:12;;;;;;;;;1.00;1.00;;;;;;;;6449242;22;8746;-79
2021/11/21 15:35:37;;;;;;;;;0.00;0.00;;;;;;;;6449317;22;8777;-79
2021/11/21 15:38:03;;;;;;;;;0.00;0.00;;;;;;;;6448930;22;8764;-79
2021/11/21 15:40:29;;;;;;;;;0.00;0.00;;;;;;;;6449593;22;8916;-79
2021/11/21 15:42:55;;;;;;;;;10.50;10.50;;;;;;;;6449148;22;8733;-79
2021/11/21 15:45:21;;;;;;;;;75.00;65.67;;;;;;;;6448966;22;9498;-79
2021/11/21 15:47:50;;;;;;;;;24.50;24.25;;;;;;;;6419944;22;8932;-79
2021/11/21 15:50:18;;;;;;;;;7.75;7.75;;;;;;;;6419854;22;8742;-79
2021/11/21 15:52:46;;;;;;;;;16.25;16.25;;;;;;;;6449208;22;8738;-79
2021/11/21 15:55:14;;;;;;;;;3.50;3.50;;;;;;;;6448853;22;8872;-80
2021/11/21 15:57:40;;;;;;;;;21.00;21.00;;;;;;;;6449069;22;8765;-79
2021/11/21 16:00:06;;;;;;;;;0.00;0.00;;;;;;;;6448959;22;8750;-79
2021/11/21 16:02:32;;;;;;;;;1.25;1.25;;;;;;;;6420194;22;8675;-79
2021/11/21 16:04:58;;;;;;;;;8.33;8.33;;;;;;;;6448482;22;9582;-78
2021/11/21 16:07:25;;;;;;;;;1.00;1.00;;;;;;;;6449365;22;8750;-79
2021/11/21 16:09:50;;;;;;;;;11.50;11.50;;;;;;;;6420262;22;8742;-79
2021/11/21 16:12:16;;;;;;;;;8.25;8.25;;;;;;;;6448694;22;8722;-79
2021/11/21 16:14:41;;;;;;;;;33.00;32.25;;;;;;;;6448716;22;8910;-79
2021/11/21 16:17:10;;;;;;;;;22.25;21.50;;;;;;;;6448286;22;8777;-79
2021/11/21 16:19:36;;;;;;;;;13.75;13.75;;;;;;;;6419730;22;8765;-79
2021/11/21 16:22:04;;;;;;;;;22.25;22.25;;;;;;;;6447957;22;8754;-79
2021/11/21 16:24:29;;;;;;;;;6.75;6.75;;;;;;;;6448621;22;8743;-79
2021/11/21 16:26:54;;;;;;;;;8.75;8.75;;;;;;;;6448073;22;8799;-79
2021/11/21 16:29:21;;;;;;;;;20.00;20.00;;;;;;;;6448994;22;8758;-78
2021/11/21 16:31:48;;;;;;;;;12.00;12.00;;;;;;;;6448725;22;8730;-79
2021/11/21 16:34:14;;;;;;;;;0.00;0.00;;;;;;;;6419580;22;8822;-79
2021/11/21 16:36:40;;;;;;;;;11.75;11.75;;;;;;;;6448468;22;8738;-79
2021/11/21 16:39:06;;;;;;;;;1.00;1.00;;;;;;;;6448800;22;8758;-78
2021/11/21 16:41:36;;;;;;;;;0.00;0.00;;;;;;;;6420084;22;8751;-79
2021/11/21 16:44:04;;;;;;;;;2.00;2.00;;;;;;;;6418881;22;8750;-80
2021/11/21 16:46:31;;;;;;;;;16.00;16.00;;;;;;;;6448885;22;9600;-79
2021/11/21 16:48:57;;;;;;;;;10.25;10.25;;;;;;;;6448391;22;9569;-80
2021/11/21 16:51:25;;;;;;;;;55.25;48.00;;;;;;;;6448658;22;8878;-81
2021/11/21 16:53:51;;;;;;;;;92.80;86.60;;;;;;;;6448808;22;8702;-80
2021/11/21 16:56:26;;;;;;;;;;;;;;;;;;;;;
2021/11/21 16:58:58;;;;;;;;;89.20;83.00;;;;;;;;6447219;22;36143;-81
2021/11/21 17:01:26;;;;;;;;;136.00;136.00;;;;;;;;6419136;22;8734;-81
2021/11/21 17:03:52;;;;;;;;;159.60;159.60;;;;;;;;6447683;22;8750;-82
2021/11/21 17:06:17;;;;;;;;;153.80;153.80;;;;;;;;6447436;22;8789;-81
2021/11/21 17:08:50;;;;;;;;;168.00;168.00;;;;;;;;6447353;22;8719;-82
2021/11/21 17:14:05;;;;;;;;;177.00;177.00;;;;;;;;6429305;22;8730;-82
2021/11/21 17:16:32;;;;;;;;;178.00;178.00;;;;;;;;6448470;22;8683;-82
2021/11/21 17:19:00;;;;;;;;;174.00;174.00;;;;;;;;6447547;22;8854;-82
2021/11/21 17:21:28;;;;;;;;;162.40;162.40;;;;;;;;6417864;22;8757;-82
2021/11/21 17:24:16;;;;;;;;;170.17;170.17;;;;;;;;6447969;22;8683;-82
2021/11/21 17:26:42;;;;;;;;;178.67;178.50;;;;;;;;6448271;22;8722;-82
2021/11/21 17:29:10;;;;;;;;;155.40;155.00;;;;;;;;6447352;22;8734;-82
2021/11/21 17:35:17;;;;;;;;;157.20;157.20;;;;;;;;6422590;22;8734;-81
2021/11/21 17:40:34;;;;;;;;;158.00;156.40;;;;;;;;6348347;22;8758;-80
2021/11/21 17:52:37;;;;;;;;;;;;;;;;;;;;;
2021/11/21 17:55:42;;;;;;;;;;;;;;;;;;;;;
2021/11/21 18:02:09;;;;;;;;;168.83;168.33;;;;;;;;6163582;23;8704;-82
2021/11/21 18:07:58;;;;;;;;;171.50;170.83;;;;;;;;6264787;22;8762;-81
